Time;durP1;ratioP1;P1;durP2;ratioP2;P2;SDS_P1;SDS_P2;PMS_P1;PMS_P2;Temp;Humidity;BMP_temperature;BMP_pressure;BME280_temperature;BME280_humidity;BME280_pressure;Samples;Min_cycle;Max_cycle;Signal;HPM_P1;HPM_P2
2022/05/05 00:00:43;;;;;;;1.73;1.38;;;10.10;89.80;;;;;;5011731;28;20187;-80
2022/05/05 00:03:09;;;;;;;2.92;1.38;;;10.10;89.00;;;;;;5009484;28;20200;-79
2022/05/05 00:05:35;;;;;;;2.45;1.42;;;10.00;88.60;;;;;;5011552;28;20191;-80
2022/05/05 00:08:01;;;;;;;5.25;1.48;;;10.00;88.70;;;;;;5017471;28;20177;-80
2022/05/05 00:15:56;;;;;;;3.90;1.30;;;10.10;91.30;;;;;;5016121;28;20343;-81
2022/05/05 00:18:22;;;;;;;1.33;1.33;;;10.00;90.60;;;;;;5013506;28;20187;-79
2022/05/05 00:20:47;;;;;;;1.13;1.13;;;10.00;89.80;;;;;;5013669;28;20598;-80
2022/05/05 00:23:13;;;;;;;1.60;1.50;;;9.90;89.40;;;;;;5010932;28;20306;-79
2022/05/05 00:25:39;;;;;;;2.25;1.60;;;9.90;88.80;;;;;;5013364;28;20609;-80
2022/05/05 00:28:05;;;;;;;3.30;1.83;;;9.90;88.60;;;;;;5015389;28;20184;-78
2022/05/05 00:30:30;;;;;;;2.95;2.70;;;9.90;88.40;;;;;;5020279;28;20183;-79
2022/05/05 00:32:56;;;;;;;3.87;2.03;;;9.80;87.50;;;;;;5011981;28;20567;-79
2022/05/05 00:35:22;;;;;;;2.33;2.13;;;9.80;88.60;;;;;;5024670;28;20243;-79
2022/05/05 00:37:47;;;;;;;2.30;2.10;;;9.80;87.80;;;;;;5013654;28;20251;-80
2022/05/05 00:40:13;;;;;;;2.40;2.20;;;9.80;87.60;;;;;;5043741;28;20189;-80
2022/05/05 00:42:39;;;;;;;4.93;2.33;;;9.80;88.20;;;;;;5010686;28;20201;-80
2022/05/05 00:45:05;;;;;;;1.98;1.88;;;9.80;88.30;;;;;;5003108;28;20199;-80
2022/05/05 00:47:31;;;;;;;2.40;2.30;;;9.80;88.00;;;;;;5000726;28;20188;-81
2022/05/05 00:49:59;;;;;;;2.65;2.38;;;9.80;88.80;;;;;;5005827;28;20177;-80
2022/05/05 00:52:28;;;;;;;3.23;2.13;;;9.80;88.30;;;;;;5007373;28;20184;-79
2022/05/05 00:54:58;;;;;;;2.00;1.83;;;9.80;88.30;;;;;;5005672;28;20209;-80
2022/05/05 00:57:24;;;;;;;2.70;2.57;;;9.80;88.70;;;;;;5011182;28;20398;-80
2022/05/05 00:59:55;;;;;;;2.50;2.40;;;9.80;88.10;;;;;;5005229;28;20185;-78
2022/05/05 01:02:21;;;;;;;2.20;2.10;;;9.80;89.20;;;;;;5009411;28;20254;-79
2022/05/05 01:04:46;;;;;;;5.70;2.33;;;9.80;89.60;;;;;;5005792;28;20189;-79
2022/05/05 01:07:15;;;;;;;2.58;1.70;;;9.80;89.30;;;;;;5008605;28;20205;-80
2022/05/05 01:09:40;;;;;;;2.17;2.08;;;9.70;88.20;;;;;;5013022;28;20190;-82
2022/05/05 01:12:08;;;;;;;1.65;1.65;;;9.70;88.60;;;;;;5007602;28;20187;-80
2022/05/05 01:14:34;;;;;;;2.30;2.10;;;9.70;90.10;;;;;;5044899;28;20187;-81
2022/05/05 01:17:01;;;;;;;2.60;2.33;;;9.70;90.90;;;;;;5015055;28;20221;-81
2022/05/05 01:19:27;;;;;;;2.13;2.03;;;9.70;91.20;;;;;;5026994;28;20187;-81
2022/05/05 01:21:57;;;;;;;2.23;2.13;;;9.60;91.50;;;;;;5019044;28;20180;-81
2022/05/05 01:28:10;;;;;;;1.57;1.57;;;9.60;90.50;;;;;;5019224;28;20180;-81
2022/05/05 01:29:55;;;;;;;1.90;1.80;;;9.50;89.10;;;;;;5005030;28;20227;-81
2022/05/05 01:32:21;;;;;;;1.47;1.47;;;9.50;89.50;;;;;;5019992;28;20199;-81
2022/05/05 01:34:47;;;;;;;3.47;2.03;;;9.50;89.20;;;;;;5019825;28;20286;-81
2022/05/05 01:37:13;;;;;;;2.30;2.20;;;9.50;89.30;;;;;;5015956;28;21026;-81
2022/05/05 01:39:39;;;;;;;2.00;1.90;;;9.50;89.50;;;;;;5011657;28;20268;-81
2022/05/05 01:42:05;;;;;;;3.77;1.90;;;9.40;89.70;;;;;;5019731;28;20718;-82
2022/05/05 01:44:31;;;;;;;2.13;2.03;;;9.40;89.40;;;;;;5027714;28;20235;-81
2022/05/05 01:46:57;;;;;;;2.83;1.97;;;9.40;89.40;;;;;;5017351;28;21460;-82
2022/05/05 01:49:22;;;;;;;3.37;1.80;;;9.40;89.80;;;;;;5026569;28;20176;-80
2022/05/05 01:51:48;;;;;;;2.50;2.40;;;9.40;89.30;;;;;;5023507;28;20177;-79
2022/05/05 01:54:14;;;;;;;2.40;2.30;;;9.30;89.20;;;;;;5049960;28;20188;-81
2022/05/05 01:56:40;;;;;;;2.80;2.60;;;9.30;89.00;;;;;;5012662;28;20220;-81
2022/05/05 01:59:06;;;;;;;3.00;2.80;;;9.30;89.50;;;;;;5001814;28;20757;-81
2022/05/05 02:01:33;;;;;;;3.50;2.92;;;9.30;89.90;;;;;;5020279;28;20292;-80
2022/05/05 02:04:01;;;;;;;3.17;2.80;;;9.30;90.50;;;;;;5016308;28;20794;-79
2022/05/05 02:06:27;;;;;;;3.03;2.83;;;9.30;90.20;;;;;;5044585;28;20185;-81
2022/05/05 02:08:53;;;;;;;3.40;2.70;;;9.30;90.30;;;;;;5019811;28;20181;-80
2022/05/05 02:11:19;;;;;;;2.27;2.17;;;9.30;90.10;;;;;;5020645;28;20173;-79
2022/05/05 02:13:44;;;;;;;2.13;2.03;;;9.20;89.30;;;;;;5016854;28;20235;-81
2022/05/05 02:16:10;;;;;;;4.03;2.63;;;9.20;89.40;;;;;;5013200;28;20667;-80
2022/05/05 02:18:36;;;;;;;2.33;1.90;;;9.20;89.20;;;;;;5028349;28;20721;-80
2022/05/05 02:21:01;;;;;;;2.50;2.17;;;9.20;90.00;;;;;;5017304;28;20185;-81
2022/05/05 02:23:27;;;;;;;2.73;2.43;;;9.20;90.20;;;;;;5020708;28;20203;-80
2022/05/05 02:25:53;;;;;;;1.73;1.70;;;9.10;89.60;;;;;;5011511;28;20698;-78
2022/05/05 02:28:19;;;;;;;2.43;2.33;;;9.20;91.20;;;;;;5005729;28;20426;-80
2022/05/05 02:30:45;;;;;;;1.83;1.73;;;9.20;92.40;;;;;;4997146;28;20181;-80
2022/05/05 02:33:11;;;;;;;1.63;1.53;;;9.20;91.30;;;;;;5003480;28;20173;-80
2022/05/05 02:35:36;;;;;;;1.57;1.57;;;9.20;91.50;;;;;;5006683;28;20618;-80
2022/05/05 02:40:47;;;;;;;1.83;1.73;;;9.10;90.90;;;;;;5019040;28;20737;-78
2022/05/05 02:43:13;;;;;;;1.47;1.37;;;9.10;91.10;;;;;;5023197;28;20180;-79
2022/05/05 02:45:38;;;;;;;1.73;1.70;;;9.10;90.70;;;;;;5020765;28;20257;-79
2022/05/05 02:48:04;;;;;;;3.80;2.00;;;9.10;90.10;;;;;;5018646;28;20215;-81
2022/05/05 02:50:31;;;;;;;2.93;1.90;;;9.10;91.40;;;;;;5022563;28;20741;-81
2022/05/05 02:52:57;;;;;;;1.37;1.37;;;9.10;89.90;;;;;;5020876;28;20188;-80
2022/05/05 02:55:23;;;;;;;4.50;1.50;;;9.10;90.60;;;;;;5013882;28;20618;-79
2022/05/05 02:57:49;;;;;;;1.63;1.63;;;9.10;91.10;;;;;;5019174;28;20223;-80
2022/05/05 03:00:15;;;;;;;1.70;1.60;;;9.20;92.20;;;;;;5019107;28;20661;-81
2022/05/05 03:02:42;;;;;;;1.47;1.47;;;9.20;92.20;;;;;;5009124;28;20605;-79
2022/05/05 03:05:09;;;;;;;2.30;2.13;;;9.30;92.40;;;;;;5014229;28;20189;-80
2022/05/05 03:07:35;;;;;;;2.67;2.07;;;9.30;93.40;;;;;;5014932;28;20950;-80
2022/05/05 03:10:01;;;;;;;2.40;2.20;;;9.30;93.70;;;;;;5008214;28;20272;-78
2022/05/05 03:12:27;;;;;;;2.43;2.17;;;9.30;94.10;;;;;;5013753;28;20295;-80
2022/05/05 03:14:53;;;;;;;5.10;2.13;;;9.20;92.90;;;;;;5011619;28;20209;-79
2022/05/05 03:17:19;;;;;;;2.10;1.83;;;9.30;93.10;;;;;;5014135;28;20368;-80
2022/05/05 03:19:45;;;;;;;2.83;2.63;;;9.20;92.20;;;;;;5002505;28;20583;-78
2022/05/05 03:22:11;;;;;;;3.10;2.80;;;9.30;94.00;;;;;;5014350;28;20191;-78
2022/05/05 03:24:36;;;;;;;6.50;2.77;;;9.30;94.40;;;;;;5006765;28;20177;-78
2022/05/05 03:27:03;;;;;;;3.13;2.70;;;9.30;93.00;;;;;;5037237;28;20189;-80
2022/05/05 03:29:29;;;;;;;4.23;2.57;;;9.30;93.00;;;;;;5032465;28;20207;-80
2022/05/05 03:31:55;;;;;;;4.60;3.57;;;9.30;93.20;;;;;;4997495;28;20306;-80
2022/05/05 03:34:20;;;;;;;5.97;2.93;;;9.40;93.10;;;;;;5015506;28;20571;-79
2022/05/05 03:36:46;;;;;;;5.33;3.30;;;9.40;92.80;;;;;;5011901;28;20266;-80
2022/05/05 03:39:12;;;;;;;7.47;3.03;;;9.40;92.90;;;;;;5008387;28;20211;-81
2022/05/05 03:41:37;;;;;;;4.63;3.47;;;9.50;93.20;;;;;;5005609;28;20185;-80
2022/05/05 03:44:05;;;;;;;3.40;3.10;;;9.50;92.80;;;;;;4999641;28;20181;-80
2022/05/05 03:46:31;;;;;;;4.33;3.33;;;9.50;92.50;;;;;;4994374;28;20197;-80
2022/05/05 03:48:57;;;;;;;3.50;3.20;;;9.60;92.90;;;;;;4995698;28;20188;-80
2022/05/05 03:51:22;;;;;;;4.17;3.60;;;9.60;92.70;;;;;;5006006;28;20267;-80
2022/05/05 03:53:48;;;;;;;3.83;3.53;;;9.70;92.50;;;;;;5010530;28;20188;-80
2022/05/05 03:56:14;;;;;;;5.00;3.27;;;9.70;93.30;;;;;;5010444;28;20209;-80
2022/05/05 03:58:39;;;;;;;3.60;3.23;;;9.70;93.10;;;;;;5005568;28;20181;-80
2022/05/05 04:01:07;;;;;;;4.18;3.78;;;9.70;93.00;;;;;;5020303;28;20188;-80
2022/05/05 04:03:34;;;;;;;4.10;3.67;;;9.50;93.00;;;;;;5013028;28;20177;-80
2022/05/05 04:06:06;;;;;;;4.37;3.87;;;9.60;93.10;;;;;;5009442;28;20255;-80
2022/05/05 04:08:33;;;;;;;4.40;4.00;;;9.60;92.70;;;;;;5027309;28;20745;-80
2022/05/05 04:11:00;;;;;;;4.37;3.97;;;9.60;92.70;;;;;;5015636;28;20239;-80
2022/05/05 04:13:26;;;;;;;3.93;3.10;;;9.70;92.80;;;;;;5003393;28;21895;-80
2022/05/05 04:15:52;;;;;;;4.30;3.53;;;9.70;93.10;;;;;;4996379;28;20224;-80
2022/05/05 04:18:18;;;;;;;4.77;3.83;;;9.80;93.30;;;;;;5007158;28;20196;-80
2022/05/05 04:20:44;;;;;;;4.50;4.03;;;9.80;92.60;;;;;;5012332;28;20185;-80
2022/05/05 04:23:10;;;;;;;7.77;3.43;;;9.90;92.90;;;;;;5013590;28;20618;-81
2022/05/05 04:25:44;;;;;;;8.13;4.10;;;10.00;93.00;;;;;;5013711;28;20192;-80
2022/05/05 04:28:12;;;;;;;4.73;3.77;;;10.00;92.40;;;;;;5004651;28;20188;-80
2022/05/05 04:30:41;;;;;;;6.33;4.20;;;10.10;92.60;;;;;;4995083;28;20213;-81
2022/05/05 04:33:08;;;;;;;6.03;4.70;;;10.10;92.50;;;;;;5004786;28;20569;-81
2022/05/05 04:35:36;;;;;;;4.73;3.93;;;10.20;92.30;;;;;;5010280;28;20663;-76
2022/05/05 04:38:03;;;;;;;4.30;3.67;;;10.20;92.30;;;;;;5041386;28;20563;-79
2022/05/05 04:40:30;;;;;;;4.47;3.93;;;10.20;92.40;;;;;;5005624;28;20188;-80
2022/05/05 04:42:55;;;;;;;5.78;4.03;;;10.30;92.20;;;;;;5013311;28;20188;-80
2022/05/05 04:45:21;;;;;;;3.97;3.67;;;10.30;92.20;;;;;;5011520;28;20255;-81
2022/05/05 04:47:47;;;;;;;5.67;4.33;;;10.30;92.10;;;;;;5011753;28;20189;-82
2022/05/05 04:50:13;;;;;;;7.97;3.77;;;10.30;92.10;;;;;;5018084;28;20253;-82
2022/05/05 04:52:39;;;;;;;4.88;3.95;;;10.40;92.00;;;;;;5018490;28;20243;-82
2022/05/05 04:55:04;;;;;;;8.80;4.75;;;10.40;92.60;;;;;;5014576;28;20197;-82
2022/05/05 04:57:30;;;;;;;10.88;5.32;;;10.40;92.60;;;;;;5017181;28;20185;-78
2022/05/05 04:59:56;;;;;;;11.32;5.65;;;10.50;92.50;;;;;;5020552;28;20670;-78
2022/05/05 05:02:21;;;;;;;18.17;6.43;;;10.50;92.30;;;;;;5014263;28;20286;-78
2022/05/05 05:04:47;;;;;;;15.65;5.78;;;10.50;92.50;;;;;;5018439;28;20230;-78
2022/05/05 05:07:13;;;;;;;19.23;6.88;;;10.50;92.20;;;;;;5022009;28;20181;-78
2022/05/05 05:09:39;;;;;;;8.00;5.63;;;10.60;92.30;;;;;;5017640;28;20181;-78
2022/05/05 05:12:05;;;;;;;9.88;5.38;;;10.60;92.40;;;;;;5020334;28;20200;-76
2022/05/05 05:14:31;;;;;;;13.70;6.15;;;10.70;92.30;;;;;;5021763;28;20176;-76
2022/05/05 05:16:56;;;;;;;10.63;5.68;;;10.70;92.30;;;;;;5015623;28;20288;-76
2022/05/05 05:19:22;;;;;;;6.90;4.82;;;10.80;92.10;;;;;;5016627;28;20271;-76
2022/05/05 05:21:48;;;;;;;7.70;5.32;;;10.90;91.80;;;;;;5016945;28;20180;-76
2022/05/05 05:24:14;;;;;;;10.10;5.43;;;11.00;91.90;;;;;;5021057;28;20184;-76
2022/05/05 05:26:40;;;;;;;10.00;5.13;;;11.10;91.80;;;;;;5015720;28;20191;-75
2022/05/05 05:29:05;;;;;;;10.75;6.50;;;11.10;91.40;;;;;;5018407;28;20173;-74
2022/05/05 05:31:31;;;;;;;10.98;5.82;;;11.20;91.00;;;;;;5015380;28;20169;-76
2022/05/05 05:33:57;;;;;;;6.72;5.43;;;11.30;90.60;;;;;;5010666;28;20702;-75
2022/05/05 05:36:23;;;;;;;11.35;6.47;;;11.40;90.20;;;;;;5039650;28;20701;-79
2022/05/05 05:38:48;;;;;;;9.20;5.35;;;11.40;90.30;;;;;;5014206;28;20188;-75
2022/05/05 05:41:14;;;;;;;10.40;6.72;;;11.50;90.40;;;;;;5009305;28;20187;-75
2022/05/05 05:43:40;;;;;;;7.43;6.03;;;11.60;90.20;;;;;;5017737;28;21050;-74
2022/05/05 05:46:06;;;;;;;9.77;6.43;;;11.60;89.80;;;;;;5012595;28;20189;-74
2022/05/05 05:48:32;;;;;;;13.30;6.82;;;11.70;89.90;;;;;;5017722;28;20186;-74
2022/05/05 05:50:58;;;;;;;11.45;7.00;;;11.60;89.60;;;;;;5020273;28;20173;-75
2022/05/05 05:53:24;;;;;;;11.88;7.18;;;11.70;89.50;;;;;;5016786;28;20188;-74
2022/05/05 05:55:49;;;;;;;13.07;8.70;;;11.70;88.90;;;;;;5014199;28;20204;-76
2022/05/05 05:58:15;;;;;;;14.13;7.38;;;11.70;88.70;;;;;;5013790;28;20195;-75
2022/05/05 06:00:41;;;;;;;10.90;7.85;;;11.60;88.80;;;;;;5016861;28;20186;-76
2022/05/05 06:05:51;;;;;;;16.27;8.07;;;11.60;89.30;;;;;;5015122;28;20608;-76
2022/05/05 06:08:17;;;;;;;15.32;8.55;;;11.60;89.40;;;;;;5017969;28;20177;-76
2022/05/05 06:10:43;;;;;;;12.70;7.45;;;11.50;89.20;;;;;;5019848;28;20207;-76
2022/05/05 06:13:09;;;;;;;13.10;8.43;;;11.50;89.70;;;;;;5013923;28;20184;-76
2022/05/05 06:15:34;;;;;;;14.63;8.43;;;11.50;89.60;;;;;;5014954;28;20472;-76
2022/05/05 06:18:00;;;;;;;13.95;8.60;;;11.50;89.90;;;;;;5013254;28;20683;-76
2022/05/05 06:20:26;;;;;;;10.05;7.57;;;11.50;90.30;;;;;;5016469;28;20213;-76
2022/05/05 06:22:52;;;;;;;14.63;8.27;;;11.60;90.30;;;;;;5017619;28;20173;-76
2022/05/05 06:25:23;;;;;;;19.35;9.18;;;11.70;90.20;;;;;;5017480;28;20177;-76
2022/05/05 06:27:50;;;;;;;18.27;9.00;;;11.80;89.50;;;;;;5016708;28;20180;-76
2022/05/05 06:30:16;;;;;;;15.80;9.18;;;11.80;89.30;;;;;;5014418;28;21094;-76
2022/05/05 06:32:43;;;;;;;16.08;9.15;;;11.90;89.50;;;;;;5014695;28;20181;-76
2022/05/05 06:35:09;;;;;;;16.08;9.77;;;12.10;89.70;;;;;;5014706;28;20358;-76
2022/05/05 06:37:36;;;;;;;22.60;9.20;;;12.20;89.30;;;;;;5013812;28;20191;-76
2022/05/05 06:40:03;;;;;;;21.00;11.20;;;12.30;88.60;;;;;;5014866;28;20195;-76
2022/05/05 06:42:29;;;;;;;21.30;10.13;;;12.50;88.50;;;;;;5013804;28;20180;-76
2022/05/05 06:44:56;;;;;;;19.02;9.73;;;12.50;88.30;;;;;;5011597;28;20195;-76
2022/05/05 06:47:22;;;;;;;13.35;8.70;;;12.70;88.40;;;;;;5019962;28;20636;-76
2022/05/05 06:49:48;;;;;;;15.65;9.32;;;12.80;88.70;;;;;;5015446;28;20280;-76
2022/05/05 06:52:14;;;;;;;17.77;10.00;;;12.90;88.50;;;;;;5018215;28;20573;-76
2022/05/05 06:54:39;;;;;;;20.75;10.50;;;13.10;87.00;;;;;;5016826;28;20181;-76
2022/05/05 06:57:05;;;;;;;18.02;10.02;;;13.10;86.30;;;;;;5013365;28;20177;-76
2022/05/05 06:59:31;;;;;;;19.58;10.48;;;13.20;85.90;;;;;;5010454;28;20173;-75
2022/05/05 07:02:02;;;;;;;18.60;9.85;;;13.20;86.00;;;;;;5013151;28;20180;-75
2022/05/05 07:07:14;;;;;;;19.05;10.68;;;13.20;85.60;;;;;;5012689;28;20191;-75
2022/05/05 07:12:26;;;;;;;24.13;11.27;;;13.20;85.80;;;;;;5017076;28;20215;-75
2022/05/05 07:14:51;;;;;;;18.92;11.23;;;13.20;86.10;;;;;;5010622;28;20208;-75
2022/05/05 07:17:17;;;;;;;21.50;10.55;;;13.20;86.00;;;;;;5011312;28;20195;-75
2022/05/05 07:19:43;;;;;;;21.23;10.75;;;13.20;86.30;;;;;;5008596;28;20608;-75
2022/05/05 07:22:09;;;;;;;18.25;11.10;;;13.20;86.20;;;;;;5014236;28;20208;-75
2022/05/05 07:24:35;;;;;;;19.08;10.65;;;13.20;86.30;;;;;;5012617;28;20235;-75
2022/05/05 07:27:02;;;;;;;17.83;10.95;;;13.20;86.20;;;;;;5015464;28;20184;-76
2022/05/05 07:29:28;;;;;;;23.13;10.52;;;13.20;86.50;;;;;;5018664;28;20214;-75
2022/05/05 07:31:54;;;;;;;18.17;9.98;;;13.10;86.80;;;;;;5013144;28;20235;-75
2022/05/05 07:34:19;;;;;;;18.45;10.32;;;13.10;87.00;;;;;;5014384;28;20714;-75
2022/05/05 07:36:45;;;;;;;14.57;9.43;;;13.10;87.50;;;;;;5015937;28;20270;-75
2022/05/05 07:39:11;;;;;;;15.20;9.95;;;13.10;87.50;;;;;;5017827;28;20196;-75
2022/05/05 07:41:38;;;;;;;15.63;9.55;;;13.10;87.30;;;;;;5012428;28;20189;-75
2022/05/05 07:44:05;;;;;;;20.42;11.02;;;13.10;87.10;;;;;;5014793;28;20254;-76
2022/05/05 07:46:34;;;;;;;19.60;9.32;;;13.20;87.00;;;;;;5011741;28;20252;-76
2022/05/05 07:49:04;;;;;;;13.07;8.50;;;13.20;87.10;;;;;;5012638;28;20599;-76
2022/05/05 07:51:30;;;;;;;15.90;9.07;;;13.20;86.90;;;;;;5017143;28;20289;-76
2022/05/05 07:56:42;;;;;;;15.60;9.05;;;13.30;86.90;;;;;;5016305;28;20405;-76
2022/05/05 07:59:08;;;;;;;16.63;9.13;;;13.40;86.90;;;;;;5011356;28;20197;-76
2022/05/05 08:01:34;;;;;;;17.98;10.10;;;13.40;87.70;;;;;;5015792;28;20322;-76
2022/05/05 08:03:59;;;;;;;15.23;8.82;;;13.40;86.70;;;;;;5015540;28;20260;-76
2022/05/05 08:06:26;;;;;;;19.45;9.48;;;13.50;86.90;;;;;;5011649;28;20284;-76
2022/05/05 08:08:51;;;;;;;16.50;9.23;;;13.60;87.10;;;;;;5013691;28;20177;-76
2022/05/05 08:11:17;;;;;;;13.55;7.80;;;13.70;87.70;;;;;;5012602;28;20181;-76
2022/05/05 08:13:44;;;;;;;14.40;7.93;;;13.70;86.70;;;;;;5008093;28;20275;-76
2022/05/05 08:16:10;;;;;;;11.52;6.78;;;13.80;86.60;;;;;;5006332;28;20351;-76
2022/05/05 08:18:38;;;;;;;6.97;4.40;;;14.10;85.40;;;;;;5012991;28;20189;-76
2022/05/05 08:21:04;;;;;;;3.30;3.00;;;14.10;85.40;;;;;;5036803;28;20255;-76
2022/05/05 08:23:30;;;;;;;4.97;4.20;;;14.10;85.80;;;;;;5012657;28;20571;-78
2022/05/05 08:28:40;;;;;;;6.50;4.50;;;14.40;85.60;;;;;;5018191;28;20227;-74
2022/05/05 08:31:07;;;;;;;4.75;3.75;;;14.50;85.20;;;;;;5016832;28;20646;-74
2022/05/05 08:33:33;;;;;;;6.85;4.78;;;14.60;84.10;;;;;;5015366;28;20181;-73
2022/05/05 08:35:59;;;;;;;9.18;5.22;;;14.70;83.90;;;;;;5015494;28;20216;-76
2022/05/05 08:38:26;;;;;;;5.13;4.60;;;14.80;83.70;;;;;;5015618;28;20706;-76
2022/05/05 08:40:51;;;;;;;4.72;4.28;;;14.90;84.40;;;;;;5013626;28;20246;-76
2022/05/05 08:43:18;;;;;;;7.03;4.60;;;15.00;84.50;;;;;;5009642;28;20723;-76
2022/05/05 08:45:46;;;;;;;4.40;3.80;;;15.10;82.70;;;;;;5014044;28;20192;-76
2022/05/05 08:48:12;;;;;;;7.72;4.93;;;15.30;83.70;;;;;;5017182;28;20184;-76
2022/05/05 08:50:40;;;;;;;6.90;4.07;;;15.40;83.50;;;;;;5017565;28;20243;-76
2022/05/05 08:53:07;;;;;;;5.40;4.90;;;15.50;83.60;;;;;;5018102;28;20191;-76
2022/05/05 08:55:34;;;;;;;4.85;4.45;;;15.70;82.80;;;;;;5018429;28;20216;-76
2022/05/05 08:58:01;;;;;;;4.68;3.97;;;15.80;81.20;;;;;;5017187;28;20185;-76
2022/05/05 09:00:27;;;;;;;7.05;5.30;;;15.90;79.60;;;;;;5015712;28;20184;-76
2022/05/05 09:03:00;;;;;;;5.25;4.82;;;16.10;79.50;;;;;;5015779;28;20180;-76
2022/05/05 09:05:44;;;;;;;4.93;4.30;;;16.10;80.20;;;;;;5016290;28;20187;-76
2022/05/05 09:08:28;;;;;;;7.93;4.22;;;16.20;77.90;;;;;;5015616;28;20193;-76
2022/05/05 09:10:56;;;;;;;5.35;4.32;;;16.30;79.80;;;;;;5014517;28;20180;-75
2022/05/05 09:13:23;;;;;;;5.25;3.97;;;16.50;80.00;;;;;;5017736;28;20185;-76
2022/05/05 09:15:49;;;;;;;10.43;4.00;;;16.70;78.90;;;;;;5017416;28;20717;-75
2022/05/05 09:18:20;;;;;;;3.63;2.53;;;17.00;79.40;;;;;;5011670;28;20192;-76
2022/05/05 09:20:48;;;;;;;6.50;3.78;;;17.20;78.10;;;;;;5013665;28;20626;-76
2022/05/05 09:23:30;;;;;;;3.95;3.55;;;17.40;75.40;;;;;;5010924;28;20184;-76
2022/05/05 09:25:56;;;;;;;4.20;3.78;;;17.60;74.10;;;;;;5025551;28;20189;-76
2022/05/05 09:28:31;;;;;;;4.88;4.00;;;17.60;74.10;;;;;;5017803;28;20216;-76
2022/05/05 09:31:06;;;;;;;4.47;3.88;;;17.80;72.00;;;;;;5017079;28;20223;-76
2022/05/05 09:33:35;;;;;;;5.28;4.82;;;18.00;72.60;;;;;;5007625;28;20208;-76
2022/05/05 09:36:02;;;;;;;6.53;4.57;;;18.40;72.40;;;;;;5013234;28;20311;-76
2022/05/05 09:38:47;;;;;;;5.50;4.47;;;18.60;71.20;;;;;;5013247;28;20196;-76
2022/05/05 09:41:13;;;;;;;5.28;3.83;;;18.90;71.10;;;;;;5015241;28;20288;-76
2022/05/05 09:43:39;;;;;;;4.65;4.28;;;19.20;71.20;;;;;;5008860;28;20211;-76
2022/05/05 09:46:30;;;;;;;7.43;4.10;;;19.70;69.40;;;;;;5005225;28;20193;-77
2022/05/05 09:49:16;;;;;;;6.32;3.78;;;20.20;67.30;;;;;;5007768;28;20189;-77
2022/05/05 09:57:42;;;;;;;2.45;1.90;;;21.80;61.60;;;;;;5014258;28;20203;-76
2022/05/05 10:05:46;;;;;;;2.13;2.03;;;23.90;58.30;;;;;;5013167;28;20227;-75
2022/05/05 10:08:15;;;;;;;1.85;1.85;;;24.80;57.10;;;;;;5014003;28;20207;-75
2022/05/05 10:10:45;;;;;;;1.58;1.48;;;24.80;57.30;;;;;;5030633;28;20226;-76
2022/05/05 10:13:13;;;;;;;1.80;1.63;;;25.20;55.70;;;;;;5009592;28;20332;-76
2022/05/05 10:15:40;;;;;;;3.58;3.10;;;26.20;55.10;;;;;;5013961;28;20204;-76
2022/05/05 10:18:06;;;;;;;2.10;2.00;;;26.30;55.20;;;;;;4967497;28;1258447;-75
2022/05/05 10:20:36;;;;;;;2.80;2.28;;;27.30;52.60;;;;;;5015026;28;20180;-76
2022/05/05 10:23:16;;;;;;;1.75;1.65;;;27.70;52.40;;;;;;5015800;28;20737;-75
2022/05/05 10:25:43;;;;;;;1.30;1.30;;;;;;;;;;5013639;28;20187;-76
2022/05/05 10:28:36;;;;;;;2.15;1.35;;;28.40;50.10;;;;;;5017757;28;20200;-77
2022/05/05 10:31:02;;;;;;;2.25;1.00;;;;;;;;;;5010545;28;20775;-76
2022/05/05 10:34:01;;;;;;;1.30;1.30;;;29.00;50.10;;;;;;5014038;28;20180;-76
2022/05/05 10:36:29;;;;;;;0.70;0.70;;;29.60;48.80;;;;;;5018730;28;20208;-76
2022/05/05 10:38:55;;;;;;;0.77;0.77;;;30.10;48.40;;;;;;5014065;28;20184;-76
2022/05/05 10:41:40;;;;;;;0.98;0.80;;;30.60;47.00;;;;;;5019996;28;20169;-76
2022/05/05 10:44:22;;;;;;;0.85;0.85;;;31.20;46.50;;;;;;5016424;28;20728;-76
2022/05/05 10:47:00;;;;;;;1.60;1.50;;;31.70;45.90;;;;;;5011450;28;20181;-76
2022/05/05 10:49:39;;;;;;;0.98;0.98;;;31.90;47.60;;;;;;5016730;28;20185;-76
2022/05/05 10:52:11;;;;;;;1.45;1.35;;;32.00;47.30;;;;;;5016387;28;20188;-76
2022/05/05 10:54:40;;;;;;;1.00;1.00;;;32.30;45.80;;;;;;5009772;28;20266;-75
2022/05/05 10:57:24;;;;;;;1.10;1.10;;;32.50;44.70;;;;;;5015261;28;20220;-76
2022/05/05 11:00:13;;;;;;;1.85;0.77;;;33.00;45.20;;;;;;5015432;28;20200;-76
2022/05/05 11:02:58;;;;;;;1.17;1.17;;;33.40;45.10;;;;;;5013738;28;20177;-76
2022/05/05 11:05:35;;;;;;;1.08;1.08;;;33.50;44.40;;;;;;5019071;28;20194;-77
2022/05/05 11:08:19;;;;;;;1.00;1.00;;;33.30;43.80;;;;;;5014664;28;20226;-76
2022/05/05 11:13:39;;;;;;;0.80;0.80;;;32.90;45.30;;;;;;5014004;28;20716;-76
2022/05/05 11:22:20;;;;;;;1.00;1.00;;;33.20;44.10;;;;;;5013271;28;20693;-75
2022/05/05 11:24:48;;;;;;;0.68;0.68;;;33.00;43.90;;;;;;5009026;28;20184;-77
2022/05/05 11:27:25;;;;;;;0.68;0.68;;;33.00;44.10;;;;;;5008040;28;20176;-77
2022/05/05 11:29:57;;;;;;;0.63;0.60;;;32.50;43.80;;;;;;5008025;28;20240;-77
2022/05/05 11:32:43;;;;;;;0.85;0.85;;;32.20;45.00;;;;;;5008139;28;20764;-77
2022/05/05 11:35:11;;;;;;;1.00;1.00;;;31.90;44.20;;;;;;5007544;28;20295;-77
2022/05/05 11:37:43;;;;;;;0.75;0.75;;;31.30;46.60;;;;;;5015204;28;20183;-77
2022/05/05 11:40:11;;;;;;;0.82;0.75;;;31.10;46.40;;;;;;5009877;28;20199;-78
2022/05/05 11:45:37;;;;;;;2.70;0.90;;;30.20;45.50;;;;;;5009935;28;20270;-77
2022/05/05 11:48:19;;;;;;;1.75;0.65;;;29.70;45.60;;;;;;5010484;28;20169;-78
2022/05/05 11:50:44;;;;;;;0.70;0.70;;;29.40;45.30;;;;;;5014663;28;20184;-78
2022/05/05 11:53:18;;;;;;;0.80;0.80;;;29.10;48.40;;;;;;5007851;28;20185;-78
2022/05/05 11:55:45;;;;;;;2.88;0.70;;;29.40;51.40;;;;;;5011202;28;20250;-77
2022/05/05 12:01:36;;;;;;;0.70;0.70;;;30.00;47.80;;;;;;5011742;28;20593;-77
2022/05/05 12:04:00;;;;;;;1.08;0.80;;;31.30;45.00;;;;;;5014465;28;20265;-78
2022/05/05 12:06:27;;;;;;;0.65;0.65;;;31.90;47.00;;;;;;5013783;28;20264;-76
2022/05/05 12:08:55;;;;;;;0.90;0.88;;;32.20;44.60;;;;;;5015905;28;20331;-77
2022/05/05 12:11:21;;;;;;;0.68;0.68;;;32.70;44.90;;;;;;5007441;28;20192;-78
2022/05/05 12:13:49;;;;;;;0.80;0.80;;;33.30;43.30;;;;;;5013323;28;21873;-77
2022/05/05 12:16:18;;;;;;;0.70;0.70;;;33.90;44.30;;;;;;5004414;28;20222;-78
2022/05/05 12:18:53;;;;;;;0.80;0.80;;;34.50;41.40;;;;;;5006579;28;21029;-78
2022/05/05 12:21:24;;;;;;;0.77;0.77;;;34.90;40.60;;;;;;5004092;28;20658;-77
2022/05/05 12:24:16;;;;;;;0.93;0.93;;;35.00;42.40;;;;;;5005838;28;20186;-78
2022/05/05 12:26:41;;;;;;;0.82;0.82;;;35.00;41.90;;;;;;5009466;28;20192;-78
2022/05/05 12:29:14;;;;;;;0.70;0.70;;;34.60;44.30;;;;;;5011882;28;20188;-78
2022/05/05 12:31:49;;;;;;;0.73;0.73;;;33.80;42.00;;;;;;5005523;28;20199;-77
2022/05/05 12:34:27;;;;;;;1.38;0.90;;;33.00;44.40;;;;;;5004773;28;20184;-76
2022/05/05 12:37:20;;;;;;;2.80;0.75;;;32.20;42.60;;;;;;5009857;28;20216;-78
2022/05/05 12:39:57;;;;;;;0.80;0.80;;;31.30;44.10;;;;;;5011163;28;20577;-78
2022/05/05 12:42:24;;;;;;;1.30;0.95;;;30.80;44.30;;;;;;5006959;28;20184;-77
2022/05/05 12:44:51;;;;;;;6.30;0.98;;;30.60;49.00;;;;;;5011156;28;20723;-78
2022/05/05 12:47:25;;;;;;;0.73;0.73;;;30.30;46.10;;;;;;5008542;28;20180;-77
2022/05/05 12:49:51;;;;;;;0.82;0.82;;;30.40;45.70;;;;;;5014052;28;20177;-77
2022/05/05 13:00:49;;;;;;;0.50;0.50;;;31.70;45.40;;;;;;5006616;28;20250;-78
2022/05/05 13:03:15;;;;;;;1.80;0.80;;;31.40;44.30;;;;;;5005557;28;20180;-77
2022/05/05 13:05:42;;;;;;;1.13;1.05;;;31.00;44.00;;;;;;5012262;28;20188;-77
2022/05/05 13:08:08;;;;;;;0.70;0.70;;;;;;;;;;5009251;28;20188;-77
2022/05/05 13:10:34;;;;;;;0.80;0.80;;;30.20;45.00;;;;;;5012013;28;20976;-76
2022/05/05 13:13:00;;;;;;;0.90;0.90;;;29.80;45.70;;;;;;5021442;28;20181;-77
2022/05/05 13:15:25;;;;;;;0.88;0.82;;;29.50;47.70;;;;;;5012231;28;20215;-77
2022/05/05 13:17:51;;;;;;;2.92;0.85;;;29.10;47.50;;;;;;5010888;28;20192;-77
2022/05/05 13:20:17;;;;;;;0.80;0.80;;;28.70;47.90;;;;;;5012483;28;20272;-77
2022/05/05 13:22:42;;;;;;;1.00;1.00;;;28.50;48.40;;;;;;5018827;28;20179;-77
2022/05/05 13:25:08;;;;;;;0.77;0.77;;;28.30;49.50;;;;;;5010954;28;20731;-77
2022/05/05 13:27:34;;;;;;;0.95;0.68;;;28.20;48.00;;;;;;5015402;28;20393;-76
2022/05/05 13:30:00;;;;;;;0.70;0.70;;;28.20;48.30;;;;;;5014990;28;20173;-76
2022/05/05 13:32:25;;;;;;;0.70;0.70;;;28.10;49.00;;;;;;5015779;28;20235;-79
2022/05/05 13:34:53;;;;;;;0.73;0.73;;;;;;;;;;5012151;28;20188;-77
2022/05/05 13:37:20;;;;;;;0.77;0.70;;;27.80;49.60;;;;;;5011575;28;20254;-76
2022/05/05 13:39:46;;;;;;;3.13;1.05;;;27.80;49.50;;;;;;5015446;28;20181;-76
2022/05/05 13:42:12;;;;;;;0.73;0.73;;;27.80;50.10;;;;;;5012813;28;20198;-77
2022/05/05 13:44:38;;;;;;;4.65;0.88;;;28.20;48.90;;;;;;5020443;28;20744;-77
2022/05/05 13:47:04;;;;;;;1.30;0.65;;;28.20;49.00;;;;;;5019730;28;20181;-77
2022/05/05 13:49:30;;;;;;;0.68;0.68;;;28.70;48.30;;;;;;5015552;28;20180;-77
2022/05/05 13:51:55;;;;;;;0.68;0.68;;;29.10;49.40;;;;;;5018129;28;20286;-77